Time;durP1;ratioP1;P1;durP2;ratioP2;P2;SDS_P1;SDS_P2;PMS_P1;PMS_P2;Temp;Humidity;BMP_temperature;BMP_pressure;BME280_temperature;BME280_humidity;BME280_pressure;Samples;Min_cycle;Max_cycle;Signal;HPM_P1;HPM_P2
2021/07/17 00:00:11;;;;;;;20.55;10.05;;;;;;;;;;1394893;42;20796;-83
2021/07/17 00:01:13;;;;;;;12.40;10.63;;;;;;;;;;1393658;42;20407;-83
2021/07/17 00:02:13;;;;;;;14.20;11.40;;;;;;;;;;1389309;42;24439;-82
2021/07/17 00:03:14;;;;;;;11.03;9.70;;;;;;;;;;1389062;42;20470;-83
2021/07/17 00:04:14;;;;;;;15.27;11.03;;;;;;;;;;1391584;42;20462;-84
2021/07/17 00:05:16;;;;;;;11.53;10.33;;;;;;;;;;1394493;42;20548;-84
2021/07/17 00:06:16;;;;;;;15.48;10.38;;;;;;;;;;1399153;42;20046;-83
2021/07/17 00:07:17;;;;;;;14.37;10.23;;;;;;;;;;1401650;42;20034;-85
2021/07/17 00:08:17;;;;;;;12.55;10.70;;;;;;;;;;1411224;42;20483;-84
2021/07/17 00:09:18;;;;;;;11.32;10.10;;;;;;;;;;1413238;41;20049;-81
2021/07/17 00:10:22;;;;;;;16.35;11.07;;;;;;;;;;1411066;42;20080;-84
2021/07/17 00:11:23;;;;;;;13.82;10.48;;;;;;;;;;1413910;41;20044;-84
2021/07/17 00:12:26;;;;;;;18.35;11.23;;;;;;;;;;1410772;41;20078;-84
2021/07/17 00:13:27;;;;;;;13.80;10.77;;;;;;;;;;1414760;41;20043;-88
2021/07/17 00:14:28;;;;;;;17.65;10.88;;;;;;;;;;1414657;41;20387;-81
2021/07/17 00:15:28;;;;;;;13.30;10.80;;;;;;;;;;1413861;41;20171;-80
2021/07/17 00:16:29;;;;;;;12.23;10.67;;;;;;;;;;1418177;41;20047;-80
2021/07/17 00:17:29;;;;;;;15.20;11.07;;;;;;;;;;1418427;41;20572;-82
2021/07/17 00:18:30;;;;;;;20.63;12.13;;;;;;;;;;1412343;41;20044;-83
2021/07/17 00:19:30;;;;;;;20.70;11.80;;;;;;;;;;1413294;41;20084;-83
2021/07/17 00:20:34;;;;;;;13.07;10.60;;;;;;;;;;1412031;41;20044;-84
2021/07/17 00:21:35;;;;;;;13.15;11.48;;;;;;;;;;1413959;41;20481;-85
2021/07/17 00:22:36;;;;;;;19.73;11.68;;;;;;;;;;1411674;41;20459;-83
2021/07/17 00:23:37;;;;;;;14.55;11.30;;;;;;;;;;1415668;41;20055;-81
2021/07/17 00:24:38;;;;;;;14.63;11.55;;;;;;;;;;1414937;41;20202;-83
2021/07/17 00:25:39;;;;;;;14.03;10.93;;;;;;;;;;1418242;41;20039;-82
2021/07/17 00:26:40;;;;;;;14.93;12.75;;;;;;;;;;1418252;41;20553;-84
2021/07/17 00:27:41;;;;;;;19.65;12.43;;;;;;;;;;1418876;41;20074;-83
2021/07/17 00:28:41;;;;;;;14.15;12.23;;;;;;;;;;1418188;41;20122;-79
2021/07/17 00:29:45;;;;;;;20.00;12.77;;;;;;;;;;1416509;41;20055;-83
2021/07/17 00:30:46;;;;;;;21.50;13.63;;;;;;;;;;1419729;41;20179;-82
2021/07/17 00:31:47;;;;;;;21.17;14.02;;;;;;;;;;1418810;41;20625;-85
2021/07/17 00:32:48;;;;;;;19.75;14.27;;;;;;;;;;1418471;41;20398;-86
2021/07/17 00:33:48;;;;;;;19.20;14.30;;;;;;;;;;1421982;41;20047;-83
2021/07/17 00:34:49;;;;;;;18.77;14.30;;;;;;;;;;1417860;41;20261;-83
2021/07/17 00:35:50;;;;;;;20.05;14.68;;;;;;;;;;1413601;41;20044;-78
2021/07/17 00:37:02;;;;;;;20.90;14.70;;;;;;;;;;1412831;41;20679;-84
2021/07/17 00:38:04;;;;;;;21.60;14.82;;;;;;;;;;1413817;42;20032;-83
2021/07/17 00:39:05;;;;;;;18.42;14.95;;;;;;;;;;1414489;41;20032;-82
2021/07/17 00:40:07;;;;;;;25.33;14.38;;;;;;;;;;1414985;41;20076;-84
2021/07/17 00:41:07;;;;;;;17.80;15.27;;;;;;;;;;1414958;41;20048;-83
2021/07/17 00:42:08;;;;;;;17.30;14.83;;;;;;;;;;1414723;41;20032;-83
2021/07/17 00:43:08;;;;;;;19.50;14.38;;;;;;;;;;1418507;41;20174;-84
2021/07/17 00:44:09;;;;;;;21.67;14.55;;;;;;;;;;1418206;41;20043;-84
2021/07/17 00:45:10;;;;;;;15.80;14.00;;;;;;;;;;1412376;41;20234;-80
2021/07/17 00:46:11;;;;;;;17.42;14.43;;;;;;;;;;1410776;42;20040;-85
2021/07/17 00:47:14;;;;;;;18.63;14.20;;;;;;;;;;1413052;41;20153;-81
2021/07/17 00:48:15;;;;;;;17.35;14.30;;;;;;;;;;1409471;42;20468;-83
2021/07/17 00:49:25;;;;;;;;;;;;;;;;;;1407961;42;20082;-83
2021/07/17 00:50:33;;;;;;;21.83;14.40;;;;;;;;;;1411473;41;20106;-86
2021/07/17 00:51:42;;;;;;;19.15;14.18;;;;;;;;;;1411999;41;20385;-83
2021/07/17 00:52:50;;;;;;;18.73;14.68;;;;;;;;;;1410371;41;20587;-84
2021/07/17 00:53:51;;;;;;;16.73;14.52;;;;;;;;;;1408038;42;20342;-83
2021/07/17 00:54:53;;;;;;;18.10;14.55;;;;;;;;;;1407914;42;20398;-84
2021/07/17 00:55:55;;;;;;;19.75;14.95;;;;;;;;;;1409074;41;20262;-84
2021/07/17 00:56:57;;;;;;;20.42;15.00;;;;;;;;;;1408607;42;20033;-83
2021/07/17 00:57:59;;;;;;;26.63;15.35;;;;;;;;;;1407210;42;20041;-83
2021/07/17 00:59:02;;;;;;;21.35;16.25;;;;;;;;;;1410033;41;20068;-84
2021/07/17 01:00:06;;;;;;;23.55;15.43;;;;;;;;;;1414305;41;20051;-83
2021/07/17 01:01:07;;;;;;;18.98;15.77;;;;;;;;;;1414699;41;20406;-77
2021/07/17 01:02:09;;;;;;;20.98;14.82;;;;;;;;;;1416762;41;20109;-82
2021/07/17 01:03:10;;;;;;;24.20;15.35;;;;;;;;;;1415429;41;20037;-85
2021/07/17 01:04:12;;;;;;;26.90;15.18;;;;;;;;;;1415828;41;20044;-84
2021/07/17 01:05:14;;;;;;;23.33;15.57;;;;;;;;;;1420368;41;20054;-83
2021/07/17 01:06:15;;;;;;;19.55;15.43;;;;;;;;;;1419402;41;20090;-82
2021/07/17 01:07:17;;;;;;;21.90;14.95;;;;;;;;;;1419893;41;20055;-83
2021/07/17 01:08:20;;;;;;;20.17;15.02;;;;;;;;;;1422893;41;20039;-84
2021/07/17 01:09:20;;;;;;;25.10;15.07;;;;;;;;;;1422358;41;20059;-83
2021/07/17 01:10:27;;;;;;;19.60;15.63;;;;;;;;;;1424700;41;20421;-84
2021/07/17 01:11:27;;;;;;;20.15;15.02;;;;;;;;;;1421186;41;20043;-83
2021/07/17 01:12:28;;;;;;;18.40;15.00;;;;;;;;;;1422611;41;20036;-82
2021/07/17 01:13:28;;;;;;;18.70;15.57;;;;;;;;;;1426158;41;20298;-83
2021/07/17 01:14:30;;;;;;;21.90;15.15;;;;;;;;;;1422069;41;20046;-82
2021/07/17 01:15:30;;;;;;;19.65;16.20;;;;;;;;;;1422083;41;20335;-83
2021/07/17 01:16:32;;;;;;;24.95;17.00;;;;;;;;;;1423573;41;20035;-84
2021/07/17 01:17:34;;;;;;;21.38;17.00;;;;;;;;;;1421514;41;20036;-84
2021/07/17 01:18:35;;;;;;;22.27;16.38;;;;;;;;;;1422682;41;20023;-83
2021/07/17 01:19:36;;;;;;;22.15;16.45;;;;;;;;;;1423143;41;20043;-83
2021/07/17 01:20:38;;;;;;;24.77;16.20;;;;;;;;;;1418666;41;20575;-83
2021/07/17 01:21:39;;;;;;;19.83;16.17;;;;;;;;;;1419134;41;20043;-83
2021/07/17 01:22:42;;;;;;;22.02;16.65;;;;;;;;;;1419089;41;20027;-86
2021/07/17 01:23:43;;;;;;;18.38;16.42;;;;;;;;;;1422941;41;20036;-84
2021/07/17 01:24:43;;;;;;;24.42;16.63;;;;;;;;;;1422180;41;20027;-84
2021/07/17 01:25:44;;;;;;;21.85;16.13;;;;;;;;;;1423068;41;20101;-83
2021/07/17 01:26:45;;;;;;;19.17;16.50;;;;;;;;;;1426553;41;20102;-83
2021/07/17 01:27:50;;;;;;;23.52;15.98;;;;;;;;;;1425036;41;20045;-83
2021/07/17 01:29:06;;;;;;;24.30;17.23;;;;;;;;;;1426190;41;20454;-83
2021/07/17 01:30:24;;;;;;;23.85;16.58;;;;;;;;;;1422431;41;20602;-83
2021/07/17 01:31:27;;;;;;;22.33;16.75;;;;;;;;;;1418522;41;20055;-84
2021/07/17 01:32:28;;;;;;;23.15;16.58;;;;;;;;;;1417417;41;20769;-84
2021/07/17 01:33:29;;;;;;;25.67;16.38;;;;;;;;;;1419971;41;20048;-83
2021/07/17 01:34:29;;;;;;;23.48;16.88;;;;;;;;;;1419890;41;20046;-83
2021/07/17 01:35:30;;;;;;;22.60;16.40;;;;;;;;;;1421876;41;20047;-83
2021/07/17 01:36:31;;;;;;;21.20;16.40;;;;;;;;;;1425214;41;20027;-86
2021/07/17 01:37:32;;;;;;;23.75;16.83;;;;;;;;;;1424281;41;20077;-85
2021/07/17 01:38:32;;;;;;;20.55;16.63;;;;;;;;;;1424695;41;20039;-82
2021/07/17 01:39:33;;;;;;;19.02;15.90;;;;;;;;;;1422698;41;20131;-83
2021/07/17 01:40:34;;;;;;;24.13;16.88;;;;;;;;;;1422382;41;20456;-83
2021/07/17 01:41:38;;;;;;;23.23;16.98;;;;;;;;;;1422179;41;20035;-83
2021/07/17 01:42:39;;;;;;;28.42;16.52;;;;;;;;;;1424343;41;20034;-83
2021/07/17 01:43:39;;;;;;;;;;;;;;;;;;1422229;41;20351;-84
2021/07/17 01:44:44;;;;;;;22.23;16.55;;;;;;;;;;1416075;41;20036;-83
2021/07/17 01:45:47;;;;;;;23.58;16.20;;;;;;;;;;1420408;41;20031;-84
2021/07/17 01:46:48;;;;;;;24.63;17.67;;;;;;;;;;1424139;41;20181;-83
2021/07/17 01:47:49;;;;;;;23.97;17.07;;;;;;;;;;1419678;41;20097;-84
2021/07/17 01:48:54;;;;;;;24.08;16.55;;;;;;;;;;1420955;41;20043;-84
2021/07/17 01:49:55;;;;;;;19.90;16.50;;;;;;;;;;1419173;41;20092;-85
2021/07/17 01:50:56;;;;;;;23.17;16.45;;;;;;;;;;1419416;41;20039;-84
2021/07/17 01:52:02;;;;;;;24.83;16.13;;;;;;;;;;1416818;41;20631;-84
2021/07/17 01:53:08;;;;;;;26.17;16.70;;;;;;;;;;1414751;41;20039;-83
2021/07/17 01:54:08;;;;;;;21.35;15.95;;;;;;;;;;1415846;41;20080;-83
2021/07/17 01:55:09;;;;;;;19.40;14.75;;;;;;;;;;1415062;41;20539;-83
2021/07/17 01:56:10;;;;;;;23.48;15.27;;;;;;;;;;1414623;41;20043;-83
2021/07/17 01:57:10;;;;;;;20.83;15.90;;;;;;;;;;1414616;41;20047;-81
2021/07/17 01:58:11;;;;;;;19.00;15.02;;;;;;;;;;1414702;41;20167;-79
2021/07/17 01:59:12;;;;;;;18.30;15.30;;;;;;;;;;1414333;41;20048;-82
2021/07/17 02:00:13;;;;;;;23.27;15.60;;;;;;;;;;1415214;41;20079;-82
2021/07/17 02:01:14;;;;;;;28.80;16.70;;;;;;;;;;1414949;41;20246;-81
2021/07/17 02:02:14;;;;;;;24.08;15.93;;;;;;;;;;1418061;41;20225;-80
2021/07/17 02:03:15;;;;;;;20.42;16.13;;;;;;;;;;1415205;41;20054;-83
2021/07/17 02:04:15;;;;;;;20.77;16.00;;;;;;;;;;1415107;41;20040;-84
2021/07/17 02:05:18;;;;;;;20.13;15.60;;;;;;;;;;1416408;41;20882;-83
2021/07/17 02:06:28;;;;;;;19.60;15.32;;;;;;;;;;1417024;41;20039;-83
2021/07/17 02:07:29;;;;;;;21.88;16.00;;;;;;;;;;1418428;41;20035;-85
2021/07/17 02:08:32;;;;;;;19.17;15.40;;;;;;;;;;1418394;41;20044;-84
2021/07/17 02:09:36;;;;;;;22.50;15.57;;;;;;;;;;1414791;41;20096;-84
2021/07/17 02:10:36;;;;;;;22.17;16.58;;;;;;;;;;1410945;42;20040;-83
2021/07/17 02:11:38;;;;;;;23.08;16.00;;;;;;;;;;1411055;42;20079;-84
2021/07/17 02:12:54;;;;;;;19.80;16.13;;;;;;;;;;1413137;42;20032;-83
2021/07/17 02:13:54;;;;;;;21.92;17.10;;;;;;;;;;1416925;41;20044;-83
2021/07/17 02:14:55;;;;;;;22.48;16.33;;;;;;;;;;1418528;41;20055;-84
2021/07/17 02:15:57;;;;;;;24.50;16.52;;;;;;;;;;1418654;41;20044;-84
2021/07/17 02:17:01;;;;;;;22.30;17.27;;;;;;;;;;1418194;41;20062;-85
2021/07/17 02:18:02;;;;;;;21.00;16.38;;;;;;;;;;1419094;41;20162;-84
2021/07/17 02:19:12;;;;;;;22.80;17.63;;;;;;;;;;1419003;41;20169;-83
2021/07/17 02:20:13;;;;;;;22.80;17.70;;;;;;;;;;1415093;42;20153;-84
2021/07/17 02:21:15;;;;;;;23.40;16.55;;;;;;;;;;1413953;41;20040;-85
2021/07/17 02:22:16;;;;;;;22.55;17.90;;;;;;;;;;1414974;42;20036;-85
2021/07/17 02:23:16;;;;;;;19.90;16.67;;;;;;;;;;1414900;41;20115;-84
2021/07/17 02:24:18;;;;;;;19.70;16.02;;;;;;;;;;1410600;42;20386;-85
2021/07/17 02:25:19;;;;;;;25.05;17.35;;;;;;;;;;1408739;42;20064;-84
2021/07/17 02:26:19;;;;;;;23.02;15.98;;;;;;;;;;1411202;42;20040;-85
2021/07/17 02:27:20;;;;;;;21.47;16.50;;;;;;;;;;1407912;42;20037;-84
2021/07/17 02:28:21;;;;;;;21.63;15.73;;;;;;;;;;1408349;42;20463;-85
2021/07/17 02:29:21;;;;;;;20.02;16.83;;;;;;;;;;1408928;42;20541;-86
2021/07/17 02:30:22;;;;;;;18.90;16.10;;;;;;;;;;1406734;42;20037;-85
2021/07/17 02:31:23;;;;;;;20.58;16.20;;;;;;;;;;1406078;42;20037;-84
2021/07/17 02:32:24;;;;;;;23.92;17.48;;;;;;;;;;1408145;42;20037;-84
2021/07/17 02:33:24;;;;;;;;;;;;;;;;;;1409298;42;20048;-84
2021/07/17 02:34:25;;;;;;;20.50;16.55;;;;;;;;;;1407757;42;19938;-85
2021/07/17 02:35:25;;;;;;;20.52;16.17;;;;;;;;;;1411577;42;20496;-85
2021/07/17 02:36:26;;;;;;;21.48;17.23;;;;;;;;;;1414663;42;20076;-83
2021/07/17 02:37:26;;;;;;;22.63;17.67;;;;;;;;;;1410915;42;20052;-81
2021/07/17 02:38:27;;;;;;;23.97;18.17;;;;;;;;;;1412033;42;20077;-78
2021/07/17 02:39:27;;;;;;;23.60;17.92;;;;;;;;;;1415210;42;20493;-84
2021/07/17 02:40:29;;;;;;;21.50;18.48;;;;;;;;;;1412997;42;20037;-84
2021/07/17 02:41:30;;;;;;;24.00;18.48;;;;;;;;;;1412037;42;20048;-83
2021/07/17 02:42:31;;;;;;;22.52;18.27;;;;;;;;;;1411300;42;20052;-83
2021/07/17 02:43:32;;;;;;;28.58;19.50;;;;;;;;;;1415217;41;20823;-85
2021/07/17 02:44:33;;;;;;;27.70;18.80;;;;;;;;;;1415667;41;20213;-87
2021/07/17 02:45:33;;;;;;;21.63;17.60;;;;;;;;;;1413254;41;20068;-84
2021/07/17 02:46:34;;;;;;;24.08;18.08;;;;;;;;;;1411939;42;20044;-83
2021/07/17 02:47:35;;;;;;;22.48;17.65;;;;;;;;;;1417024;41;20040;-87
2021/07/17 02:48:35;;;;;;;22.77;17.15;;;;;;;;;;1418749;41;20047;-84
2021/07/17 02:49:36;;;;;;;21.23;17.90;;;;;;;;;;1423250;41;20040;-85
2021/07/17 02:50:38;;;;;;;26.45;17.80;;;;;;;;;;1420006;41;20469;-83
2021/07/17 02:51:38;;;;;;;24.98;18.77;;;;;;;;;;1422590;41;20371;-84
2021/07/17 02:52:45;;;;;;;22.00;17.98;;;;;;;;;;1425361;41;20043;-84
2021/07/17 02:53:45;;;;;;;25.17;18.17;;;;;;;;;;1426755;41;20101;-84
2021/07/17 02:54:46;;;;;;;23.90;18.35;;;;;;;;;;1426758;41;20050;-77
2021/07/17 02:55:47;;;;;;;28.95;18.92;;;;;;;;;;1421814;41;20084;-84
2021/07/17 02:56:48;;;;;;;25.65;18.90;;;;;;;;;;1426342;41;20103;-84
2021/07/17 02:57:48;;;;;;;23.63;17.65;;;;;;;;;;1426201;41;20186;-84
2021/07/17 02:58:49;;;;;;;24.85;18.48;;;;;;;;;;1428181;41;20045;-84
2021/07/17 02:59:49;;;;;;;27.00;18.13;;;;;;;;;;1423555;41;20100;-82
2021/07/17 03:00:54;;;;;;;26.20;18.00;;;;;;;;;;1418702;41;20634;-85
2021/07/17 03:01:54;;;;;;;24.50;18.08;;;;;;;;;;1426445;41;20063;-84
2021/07/17 03:02:55;;;;;;;24.20;18.17;;;;;;;;;;1431419;41;20026;-84
2021/07/17 03:03:55;;;;;;;26.08;18.45;;;;;;;;;;1431503;41;20499;-85
2021/07/17 03:04:58;;;;;;;24.65;18.70;;;;;;;;;;1426151;41;20046;-85
2021/07/17 03:05:58;;;;;;;28.77;19.80;;;;;;;;;;1419482;41;20043;-86
2021/07/17 03:06:59;;;;;;;22.63;18.90;;;;;;;;;;1418269;41;20024;-84
2021/07/17 03:07:59;;;;;;;29.30;20.50;;;;;;;;;;1417304;41;20596;-81
2021/07/17 03:09:03;;;;;;;26.00;18.93;;;;;;;;;;1426415;41;20053;-84
2021/07/17 03:10:05;;;;;;;30.83;20.02;;;;;;;;;;1425891;41;20544;-84
2021/07/17 03:11:05;;;;;;;30.80;19.42;;;;;;;;;;1419081;41;20064;-83
2021/07/17 03:12:06;;;;;;;31.03;19.73;;;;;;;;;;1422215;41;20154;-75
2021/07/17 03:13:07;;;;;;;25.98;19.60;;;;;;;;;;1427843;41;20545;-84
2021/07/17 03:14:07;;;;;;;26.83;19.98;;;;;;;;;;1423023;41;20190;-80
2021/07/17 03:15:08;;;;;;;29.00;20.73;;;;;;;;;;1423409;41;20197;-83
2021/07/17 03:16:09;;;;;;;30.60;21.92;;;;;;;;;;1426498;41;20057;-85
2021/07/17 03:17:12;;;;;;;31.10;20.25;;;;;;;;;;1426487;41;20466;-82
2021/07/17 03:18:12;;;;;;;29.88;21.25;;;;;;;;;;1430403;41;20035;-85
2021/07/17 03:19:14;;;;;;;29.25;20.75;;;;;;;;;;1426772;41;20779;-84
2021/07/17 03:20:14;;;;;;;29.50;22.17;;;;;;;;;;1429606;41;20156;-84
2021/07/17 03:21:15;;;;;;;33.97;22.13;;;;;;;;;;1428452;41;20145;-83
2021/07/17 03:22:15;;;;;;;28.33;22.30;;;;;;;;;;1435453;41;20778;-85
2021/07/17 03:23:16;;;;;;;29.77;22.00;;;;;;;;;;1430744;41;20049;-83
2021/07/17 03:24:17;;;;;;;32.20;22.38;;;;;;;;;;1430441;41;20448;-84
2021/07/17 03:25:17;;;;;;;28.58;21.48;;;;;;;;;;1430730;41;20240;-84
2021/07/17 03:26:18;;;;;;;34.42;22.90;;;;;;;;;;1434000;41;20033;-79
2021/07/17 03:27:19;;;;;;;29.65;22.75;;;;;;;;;;1432318;41;20719;-82
2021/07/17 03:28:19;;;;;;;30.85;22.50;;;;;;;;;;1426304;41;20081;-84
2021/07/17 03:29:20;;;;;;;31.23;23.45;;;;;;;;;;1426041;41;20046;-83
2021/07/17 03:30:20;;;;;;;34.78;23.27;;;;;;;;;;1425806;41;20039;-84
2021/07/17 03:31:26;;;;;;;38.00;23.77;;;;;;;;;;1424042;41;20096;-84
2021/07/17 03:32:27;;;;;;;34.72;25.05;;;;;;;;;;1422912;41;20137;-84
2021/07/17 03:33:29;;;;;;;41.88;25.52;;;;;;;;;;1421857;41;20117;-85
2021/07/17 03:34:30;;;;;;;31.23;24.60;;;;;;;;;;1419516;41;20043;-84
2021/07/17 03:35:30;;;;;;;35.97;25.05;;;;;;;;;;1423086;41;20031;-85
2021/07/17 03:36:31;;;;;;;40.67;24.15;;;;;;;;;;1426998;41;20054;-84
2021/07/17 03:37:31;;;;;;;35.83;25.15;;;;;;;;;;1425671;41;20065;-85
2021/07/17 03:38:39;;;;;;;35.88;25.83;;;;;;;;;;1423038;41;20035;-84
2021/07/17 03:39:43;;;;;;;34.35;25.90;;;;;;;;;;1417577;41;20218;-84
2021/07/17 03:40:52;;;;;;;37.40;26.55;;;;;;;;;;1421860;41;20023;-85
2021/07/17 03:42:02;;;;;;;39.03;27.45;;;;;;;;;;1425133;41;20331;-83
2021/07/17 03:43:03;;;;;;;43.13;28.08;;;;;;;;;;1427604;41;20035;-84
2021/07/17 03:44:11;;;;;;;36.40;26.65;;;;;;;;;;1426912;41;20031;-88
2021/07/17 03:45:12;;;;;;;37.42;26.45;;;;;;;;;;1427868;41;20039;-84
2021/07/17 03:46:17;;;;;;;34.92;26.45;;;;;;;;;;1422780;41;20053;-83
2021/07/17 03:47:34;;;;;;;36.40;27.15;;;;;;;;;;1416885;41;20043;-85
2021/07/17 03:48:35;;;;;;;37.58;26.48;;;;;;;;;;1407491;42;20092;-85
2021/07/17 03:49:35;;;;;;;34.58;26.50;;;;;;;;;;1408191;42;20428;-84
2021/07/17 03:50:36;;;;;;;42.90;27.05;;;;;;;;;;1412344;42;20044;-84
2021/07/17 03:51:37;;;;;;;36.55;27.70;;;;;;;;;;1408262;42;20168;-84
2021/07/17 03:52:37;;;;;;;40.27;25.37;;;;;;;;;;1403664;41;20041;-84
2021/07/17 03:53:44;;;;;;;36.30;25.75;;;;;;;;;;1405337;42;20531;-85
2021/07/17 03:55:25;;;;;;;44.17;27.15;;;;;;;;;;1408272;41;20978;-84
2021/07/17 03:56:45;;;;;;;41.88;26.17;;;;;;;;;;1411946;41;20040;-84
2021/07/17 03:57:45;;;;;;;38.45;26.52;;;;;;;;;;1416393;41;20098;-84
2021/07/17 03:59:04;;;;;;;41.23;27.07;;;;;;;;;;1420613;41;20039;-84
2021/07/17 04:00:06;;;;;;;42.47;27.08;;;;;;;;;;1418099;41;20039;-84
2021/07/17 04:01:06;;;;;;;40.25;27.67;;;;;;;;;;1423568;41;20058;-85
2021/07/17 04:02:14;;;;;;;40.95;26.52;;;;;;;;;;1422608;41;20165;-84
2021/07/17 04:04:01;;;;;;;39.10;26.55;;;;;;;;;;1427379;41;20085;-83
2021/07/17 04:05:03;;;;;;;36.47;25.83;;;;;;;;;;1426634;41;20397;-84
2021/07/17 04:06:11;;;;;;;42.92;26.90;;;;;;;;;;1426543;41;20295;-84
2021/07/17 04:07:19;;;;;;;41.10;26.33;;;;;;;;;;1425507;41;20080;-87
2021/07/17 04:08:31;;;;;;;40.25;27.35;;;;;;;;;;1422681;41;20472;-83
2021/07/17 04:10:59;;;;;;;42.22;27.92;;;;;;;;;;1422702;41;20031;-84
2021/07/17 04:12:11;;;;;;;44.85;28.20;;;;;;;;;;1418755;41;20243;-84
2021/07/17 04:13:14;;;;;;;41.40;27.50;;;;;;;;;;1409600;42;20119;-83
2021/07/17 04:14:14;;;;;;;41.90;28.70;;;;;;;;;;1412157;41;20040;-84
2021/07/17 04:15:15;;;;;;;41.35;26.70;;;;;;;;;;1414738;41;20033;-83
2021/07/17 04:16:15;;;;;;;39.60;27.83;;;;;;;;;;1415641;41;20081;-83
2021/07/17 04:17:16;;;;;;;38.58;26.80;;;;;;;;;;1414132;41;20300;-84
2021/07/17 04:18:17;;;;;;;44.95;26.95;;;;;;;;;;1417371;41;20293;-84
2021/07/17 04:19:20;;;;;;;35.45;26.67;;;;;;;;;;1424174;41;20067;-84
2021/07/17 04:20:21;;;;;;;42.53;26.70;;;;;;;;;;1422482;41;20274;-84
2021/07/17 04:21:25;;;;;;;38.63;27.55;;;;;;;;;;1430943;41;20691;-83
2021/07/17 04:22:34;;;;;;;41.65;26.67;;;;;;;;;;1429946;41;20300;-85
2021/07/17 04:23:42;;;;;;;37.97;26.95;;;;;;;;;;1430133;41;20030;-84
2021/07/17 04:24:53;;;;;;;41.10;26.35;;;;;;;;;;1429534;41;20837;-84
2021/07/17 04:26:06;;;;;;;35.35;25.10;;;;;;;;;;1430046;41;20034;-84
2021/07/17 04:27:09;;;;;;;33.88;24.73;;;;;;;;;;1429633;41;20904;-84
2021/07/17 04:28:10;;;;;;;34.40;24.92;;;;;;;;;;1431102;41;20294;-84
2021/07/17 04:29:10;;;;;;;34.75;25.17;;;;;;;;;;1431898;41;20035;-87
2021/07/17 04:30:12;;;;;;;39.92;25.30;;;;;;;;;;1428950;41;20070;-86
2021/07/17 04:31:14;;;;;;;34.65;25.33;;;;;;;;;;1430699;41;20158;-84
2021/07/17 04:32:15;;;;;;;35.00;25.00;;;;;;;;;;1430498;41;20031;-84
2021/07/17 04:33:15;;;;;;;38.17;24.48;;;;;;;;;;1418640;41;20042;-85
2021/07/17 04:34:16;;;;;;;32.72;23.60;;;;;;;;;;1430570;41;20038;-85
2021/07/17 04:35:17;;;;;;;33.53;24.42;;;;;;;;;;1429911;41;20057;-84
2021/07/17 04:36:17;;;;;;;35.53;23.33;;;;;;;;;;1430136;41;20047;-84
2021/07/17 04:37:19;;;;;;;36.65;23.17;;;;;;;;;;1430788;41;20049;-83
2021/07/17 04:38:20;;;;;;;33.90;22.85;;;;;;;;;;1434635;41;20046;-81
2021/07/17 04:39:21;;;;;;;31.35;22.98;;;;;;;;;;1434462;41;20026;-84
2021/07/17 04:40:21;;;;;;;32.30;23.02;;;;;;;;;;1434418;41;20098;-85
2021/07/17 04:41:22;;;;;;;33.70;22.70;;;;;;;;;;1434208;41;21032;-84
2021/07/17 04:42:22;;;;;;;27.70;21.90;;;;;;;;;;1437034;41;20074;-84
2021/07/17 04:43:23;;;;;;;36.17;21.98;;;;;;;;;;1435774;41;20622;-84
2021/07/17 04:44:23;;;;;;;30.57;21.80;;;;;;;;;;1438744;41;20073;-84
2021/07/17 04:45:24;;;;;;;30.23;21.98;;;;;;;;;;1438150;41;20530;-85
2021/07/17 04:46:24;;;;;;;32.35;21.77;;;;;;;;;;1438575;41;20043;-85
2021/07/17 04:47:25;;;;;;;32.15;21.70;;;;;;;;;;1433104;41;20052;-84
2021/07/17 04:48:26;;;;;;;31.40;22.33;;;;;;;;;;1428012;41;20074;-84
2021/07/17 04:49:26;;;;;;;32.55;21.67;;;;;;;;;;1429151;41;20067;-78
2021/07/17 04:50:27;;;;;;;36.63;22.02;;;;;;;;;;1430336;41;20060;-81
2021/07/17 04:51:27;;;;;;;31.30;21.70;;;;;;;;;;1433661;41;20044;-84
2021/07/17 04:52:28;;;;;;;32.05;22.40;;;;;;;;;;1434573;41;20252;-85
2021/07/17 04:53:29;;;;;;;28.65;20.88;;;;;;;;;;1431769;41;20978;-84
2021/07/17 04:54:30;;;;;;;29.60;21.70;;;;;;;;;;1430465;41;20042;-83
2021/07/17 04:55:31;;;;;;;;;;;;;;;;;;1433820;41;20514;-83
2021/07/17 04:56:34;;;;;;;30.33;20.10;;;;;;;;;;1429192;41;19933;-84
2021/07/17 04:57:34;;;;;;;31.77;21.27;;;;;;;;;;1427777;41;20034;-84
2021/07/17 04:58:35;;;;;;;33.75;21.63;;;;;;;;;;1426575;41;20051;-85
2021/07/17 04:59:35;;;;;;;31.00;21.27;;;;;;;;;;1426918;41;20043;-84
2021/07/17 05:00:36;;;;;;;28.05;21.00;;;;;;;;;;1426363;41;20576;-84
2021/07/17 05:01:37;;;;;;;31.23;22.77;;;;;;;;;;1426725;41;20039;-84
2021/07/17 05:02:52;;;;;;;31.73;21.98;;;;;;;;;;1426922;41;20046;-85
2021/07/17 05:03:53;;;;;;;33.50;22.85;;;;;;;;;;1421697;41;20047;-84
2021/07/17 05:04:53;;;;;;;30.02;21.90;;;;;;;;;;1423793;41;20426;-83
2021/07/17 05:05:54;;;;;;;29.45;21.95;;;;;;;;;;1423974;41;20039;-82
2021/07/17 05:06:55;;;;;;;31.35;21.85;;;;;;;;;;1423604;41;20169;-84
2021/07/17 05:07:55;;;;;;;32.72;22.88;;;;;;;;;;1427324;41;20062;-84
2021/07/17 05:08:56;;;;;;;31.58;23.13;;;;;;;;;;1426429;41;20049;-86
2021/07/17 05:09:59;;;;;;;33.00;23.02;;;;;;;;;;1422889;41;20208;-85
2021/07/17 05:10:59;;;;;;;31.48;22.55;;;;;;;;;;1418812;41;20046;-84
2021/07/17 05:12:01;;;;;;;30.67;22.38;;;;;;;;;;1418732;41;20047;-84
2021/07/17 05:13:12;;;;;;;31.20;22.80;;;;;;;;;;1421911;41;20055;-85
2021/07/17 05:14:13;;;;;;;32.45;21.88;;;;;;;;;;1424948;41;20170;-84
2021/07/17 05:15:15;;;;;;;34.45;22.58;;;;;;;;;;1422887;41;20460;-85
2021/07/17 05:16:16;;;;;;;31.92;21.63;;;;;;;;;;1421853;41;20039;-84
2021/07/17 05:17:16;;;;;;;37.53;22.45;;;;;;;;;;1425802;41;20031;-85
2021/07/17 05:18:17;;;;;;;32.42;21.63;;;;;;;;;;1426551;41;20042;-85
2021/07/17 05:19:18;;;;;;;35.47;21.33;;;;;;;;;;1422760;41;20039;-84
2021/07/17 05:20:18;;;;;;;;;;;;;;;;;;1427779;41;20236;-83
2021/07/17 05:21:19;;;;;;;32.60;22.45;;;;;;;;;;1418145;41;20027;-84
2021/07/17 05:22:19;;;;;;;32.40;22.15;;;;;;;;;;1413546;41;20067;-85
2021/07/17 05:23:20;;;;;;;44.07;22.67;;;;;;;;;;1415410;41;20084;-84
2021/07/17 05:24:20;;;;;;;33.40;22.95;;;;;;;;;;1414000;41;20486;-83
2021/07/17 05:25:23;;;;;;;35.60;23.50;;;;;;;;;;1413617;42;20041;-84
2021/07/17 05:26:24;;;;;;;39.10;23.35;;;;;;;;;;1411620;42;20060;-84
2021/07/17 05:27:24;;;;;;;34.85;22.73;;;;;;;;;;1414791;41;20045;-83
2021/07/17 05:28:25;;;;;;;32.35;22.65;;;;;;;;;;1420938;41;20131;-84
2021/07/17 05:29:26;;;;;;;29.75;22.63;;;;;;;;;;1424666;41;20198;-84
2021/07/17 05:30:26;;;;;;;34.90;24.70;;;;;;;;;;1419603;41;20035;-84
2021/07/17 05:31:27;;;;;;;33.50;24.55;;;;;;;;;;1418383;41;20042;-84
2021/07/17 05:32:27;;;;;;;37.10;24.42;;;;;;;;;;1417343;41;20063;-85
2021/07/17 05:33:29;;;;;;;34.10;24.13;;;;;;;;;;1411603;42;20453;-86
2021/07/17 05:34:29;;;;;;;36.08;24.60;;;;;;;;;;1412146;42;20106;-84
2021/07/17 05:35:30;;;;;;;34.65;23.98;;;;;;;;;;1422555;41;20144;-83
2021/07/17 05:36:31;;;;;;;34.58;24.75;;;;;;;;;;1422369;41;20039;-85
2021/07/17 05:37:31;;;;;;;32.13;24.25;;;;;;;;;;1422047;41;20039;-84
2021/07/17 05:38:32;;;;;;;38.00;23.83;;;;;;;;;;1422759;41;20059;-85
2021/07/17 05:39:33;;;;;;;36.55;25.17;;;;;;;;;;1424613;41;20071;-85
2021/07/17 05:40:35;;;;;;;41.30;24.98;;;;;;;;;;1424217;41;20054;-88
2021/07/17 05:41:35;;;;;;;40.15;25.45;;;;;;;;;;1420521;41;20473;-80
2021/07/17 05:42:36;;;;;;;34.88;24.88;;;;;;;;;;1418866;41;20039;-83
2021/07/17 05:43:38;;;;;;;33.78;24.58;;;;;;;;;;1419807;41;20278;-83
2021/07/17 05:44:39;;;;;;;41.85;26.13;;;;;;;;;;1419363;41;20047;-86
2021/07/17 05:45:40;;;;;;;33.25;25.15;;;;;;;;;;1419574;41;20034;-85
2021/07/17 05:46:41;;;;;;;;;;;;;;;;;;1420876;41;20096;-85
2021/07/17 05:47:42;;;;;;;33.97;23.95;;;;;;;;;;1420601;41;19941;-82
2021/07/17 05:48:42;;;;;;;37.40;24.70;;;;;;;;;;1423424;41;20050;-82
2021/07/17 05:49:43;;;;;;;34.67;24.23;;;;;;;;;;1426484;41;20045;-84
2021/07/17 05:50:44;;;;;;;35.03;24.77;;;;;;;;;;1425229;41;20802;-85
2021/07/17 05:51:46;;;;;;;36.42;25.23;;;;;;;;;;1432409;41;20098;-84
2021/07/17 05:52:47;;;;;;;35.47;25.15;;;;;;;;;;1432444;41;20030;-84
2021/07/17 05:53:48;;;;;;;37.05;24.45;;;;;;;;;;1424107;41;20171;-84
2021/07/17 05:54:48;;;;;;;38.70;25.70;;;;;;;;;;1430422;41;20643;-85
2021/07/17 05:55:49;;;;;;;39.47;25.10;;;;;;;;;;1431193;41;20034;-85
2021/07/17 05:56:55;;;;;;;34.42;23.75;;;;;;;;;;1429764;41;20046;-80
2021/07/17 05:57:56;;;;;;;39.63;23.77;;;;;;;;;;1426449;41;20053;-84
2021/07/17 05:58:56;;;;;;;40.78;23.83;;;;;;;;;;1424808;41;20050;-84
2021/07/17 06:00:00;;;;;;;32.03;24.17;;;;;;;;;;1429097;41;20096;-84
2021/07/17 06:01:00;;;;;;;38.90;25.30;;;;;;;;;;1428568;41;20505;-85
2021/07/17 06:02:01;;;;;;;37.17;24.30;;;;;;;;;;1428799;41;20039;-86
2021/07/17 06:03:01;;;;;;;33.28;23.70;;;;;;;;;;1426664;41;20128;-85
2021/07/17 06:04:03;;;;;;;34.90;23.58;;;;;;;;;;1424087;41;20072;-84